Time;durP1;ratioP1;P1;durP2;ratioP2;P2;SDS_P1;SDS_P2;PMS_P1;PMS_P2;Temp;Humidity;BMP_temperature;BMP_pressure;BME280_temperature;BME280_humidity;BME280_pressure;Samples;Min_cycle;Max_cycle;Signal;HPM_P1;HPM_P2
2023/05/28 00:00:10;;;;;;;15.27;6.47;;;12.10;99.90;;;;;;4995337;28;20046;-73
2023/05/28 00:02:36;;;;;;;14.15;6.35;;;12.10;99.90;;;;;;4995567;28;20050;-73
2023/05/28 00:05:02;;;;;;;18.88;6.80;;;12.20;99.90;;;;;;4994054;28;20121;-73
2023/05/28 00:07:28;;;;;;;23.10;8.43;;;12.20;99.90;;;;;;4994160;28;20515;-73
2023/05/28 00:09:55;;;;;;;18.10;6.28;;;12.20;99.90;;;;;;4994218;28;20038;-73
2023/05/28 00:12:21;;;;;;;17.33;6.72;;;12.20;99.90;;;;;;4993969;28;20088;-73
2023/05/28 00:14:47;;;;;;;32.88;8.50;;;12.20;99.90;;;;;;4994007;28;20034;-73
2023/05/28 00:17:13;;;;;;;16.15;7.07;;;12.30;99.90;;;;;;4977411;28;20073;-73
2023/05/28 00:19:39;;;;;;;21.48;8.38;;;12.30;99.90;;;;;;4994781;28;20241;-73
2023/05/28 00:22:05;;;;;;;18.80;7.22;;;12.20;99.90;;;;;;4993544;28;20155;-73
2023/05/28 00:24:30;;;;;;;19.63;7.55;;;12.20;99.90;;;;;;4993683;28;20163;-73
2023/05/28 00:26:56;;;;;;;21.00;7.65;;;12.20;99.90;;;;;;4993833;28;20038;-73
2023/05/28 00:29:21;;;;;;;18.63;7.90;;;12.20;99.90;;;;;;4994862;28;20162;-73
2023/05/28 00:31:47;;;;;;;19.42;7.20;;;12.20;99.90;;;;;;4993355;28;20540;-73
2023/05/28 00:34:12;;;;;;;15.18;6.38;;;12.20;99.90;;;;;;4993399;28;20057;-73
2023/05/28 00:36:38;;;;;;;18.30;6.38;;;12.20;99.90;;;;;;4994423;28;20038;-73
2023/05/28 00:39:04;;;;;;;17.88;6.95;;;12.10;99.90;;;;;;4993424;28;20050;-73
2023/05/28 00:41:31;;;;;;;10.15;5.68;;;12.10;99.90;;;;;;4977112;28;20061;-73
2023/05/28 00:43:57;;;;;;;20.33;6.35;;;12.10;99.90;;;;;;4993232;28;20077;-73
2023/05/28 00:46:24;;;;;;;14.35;7.15;;;12.10;99.90;;;;;;4993162;28;20070;-73
2023/05/28 00:48:50;;;;;;;17.92;7.05;;;12.10;99.90;;;;;;4992929;28;20074;-73
2023/05/28 00:51:16;;;;;;;22.50;8.45;;;12.10;99.90;;;;;;4994398;28;20046;-73
2023/05/28 00:53:42;;;;;;;21.20;8.85;;;12.10;99.90;;;;;;4994431;28;20045;-73
2023/05/28 00:56:10;;;;;;;19.38;7.22;;;12.00;99.90;;;;;;4994071;28;20521;-73
2023/05/28 00:58:40;;;;;;;15.75;7.10;;;11.90;99.90;;;;;;4994086;28;20050;-73
2023/05/28 01:01:12;;;;;;;25.40;6.90;;;12.00;99.90;;;;;;4993106;28;20042;-73
2023/05/28 01:03:39;;;;;;;20.77;7.38;;;12.00;99.90;;;;;;4992724;28;20038;-73
2023/05/28 01:06:12;;;;;;;19.60;7.25;;;12.00;99.90;;;;;;4992527;28;20522;-73
2023/05/28 01:08:38;;;;;;;;;;;12.00;99.90;;;;;;4993085;28;20038;-73
2023/05/28 01:11:07;;;;;;;18.08;6.53;;;11.90;99.90;;;;;;4992493;28;20400;-73
2023/05/28 01:13:33;;;;;;;22.27;8.73;;;11.80;99.90;;;;;;4993919;28;20035;-73
2023/05/28 01:16:00;;;;;;;17.85;6.88;;;11.90;99.90;;;;;;4992405;28;20038;-73
2023/05/28 01:18:27;;;;;;;20.08;7.75;;;11.90;99.90;;;;;;4992383;28;20673;-73
2023/05/28 01:20:53;;;;;;;20.23;7.38;;;11.90;99.90;;;;;;4976247;28;20142;-73
2023/05/28 01:23:23;;;;;;;21.52;7.93;;;11.90;99.90;;;;;;4993816;28;20467;-72
2023/05/28 01:25:52;;;;;;;21.25;8.18;;;11.80;99.90;;;;;;4993508;28;20042;-73
2023/05/28 01:28:19;;;;;;;18.83;7.35;;;11.80;99.90;;;;;;4992131;28;20038;-73
2023/05/28 01:30:45;;;;;;;18.27;6.68;;;11.90;99.90;;;;;;4993455;28;20054;-73
2023/05/28 01:33:11;;;;;;;17.08;7.10;;;11.90;99.90;;;;;;4976042;28;20038;-73
2023/05/28 01:35:41;;;;;;;19.45;7.20;;;11.90;99.90;;;;;;4992347;28;20522;-73
2023/05/28 01:38:08;;;;;;;17.13;6.57;;;11.90;99.90;;;;;;4991987;28;20045;-73
2023/05/28 01:40:36;;;;;;;14.98;6.47;;;11.90;99.90;;;;;;4992173;28;20038;-73
2023/05/28 01:43:03;;;;;;;15.85;5.53;;;11.90;99.90;;;;;;4993095;28;20050;-73
2023/05/28 01:45:30;;;;;;;17.77;5.95;;;11.80;99.90;;;;;;4992190;28;20046;-73
2023/05/28 01:47:56;;;;;;;16.50;6.82;;;11.90;99.90;;;;;;4993122;28;20038;-73
2023/05/28 01:50:22;;;;;;;13.50;6.03;;;11.90;99.90;;;;;;4992154;28;20031;-73
2023/05/28 01:52:47;;;;;;;17.83;7.03;;;11.80;99.90;;;;;;4993094;28;20042;-73
2023/05/28 01:55:14;;;;;;;18.25;8.18;;;11.90;99.90;;;;;;4993166;28;20126;-73
2023/05/28 01:57:39;;;;;;;17.10;7.15;;;11.90;99.90;;;;;;4992864;28;20046;-73
2023/05/28 02:00:09;;;;;;;22.10;7.93;;;11.90;99.90;;;;;;4993057;28;20041;-73
2023/05/28 02:02:35;;;;;;;20.45;7.78;;;11.90;99.90;;;;;;4991894;28;20042;-73
2023/05/28 02:05:01;;;;;;;21.70;7.47;;;11.90;99.90;;;;;;4991562;28;20521;-73
2023/05/28 02:07:26;;;;;;;15.85;6.40;;;11.90;99.90;;;;;;4991551;28;20173;-73
2023/05/28 02:09:52;;;;;;;16.52;7.82;;;11.90;99.90;;;;;;4991618;28;20049;-73
2023/05/28 02:12:18;;;;;;;15.98;6.13;;;11.90;99.90;;;;;;4991572;28;20449;-73
2023/05/28 02:14:44;;;;;;;21.90;7.45;;;11.90;99.90;;;;;;4991510;28;20038;-73
2023/05/28 02:17:10;;;;;;;16.10;6.55;;;11.90;99.90;;;;;;4992653;28;20410;-73
2023/05/28 02:19:36;;;;;;;17.45;6.22;;;11.90;99.90;;;;;;4991368;28;20053;-73
2023/05/28 02:22:11;;;;;;;17.45;6.40;;;11.90;99.90;;;;;;4975173;28;20046;-73
2023/05/28 02:24:40;;;;;;;20.25;6.80;;;11.90;99.90;;;;;;4992651;28;20125;-73
2023/05/28 02:27:07;;;;;;;20.77;7.55;;;12.00;99.90;;;;;;4992778;28;20048;-73
2023/05/28 02:29:33;;;;;;;17.23;6.68;;;12.00;99.90;;;;;;4975016;28;20494;-73
2023/05/28 02:32:00;;;;;;;16.55;6.30;;;12.00;99.90;;;;;;4992533;28;20034;-74
2023/05/28 02:34:25;;;;;;;25.85;7.07;;;11.90;99.90;;;;;;4991198;28;20088;-73
2023/05/28 02:36:52;;;;;;;16.05;6.18;;;11.90;99.90;;;;;;4991267;28;20046;-73
2023/05/28 02:39:18;;;;;;;15.77;6.15;;;12.00;99.90;;;;;;4992295;28;20101;-73
2023/05/28 02:41:44;;;;;;;16.48;5.35;;;11.90;99.90;;;;;;4991411;28;20502;-73
2023/05/28 02:44:09;;;;;;;14.15;5.43;;;11.90;99.90;;;;;;4991431;28;20554;-73
2023/05/28 02:46:35;;;;;;;14.82;6.35;;;11.90;99.90;;;;;;4992310;28;20046;-72
2023/05/28 02:49:00;;;;;;;16.02;5.72;;;11.90;99.90;;;;;;4974299;28;20042;-73
2023/05/28 02:51:26;;;;;;;17.65;5.95;;;11.90;99.90;;;;;;4992338;28;20042;-73
2023/05/28 02:53:51;;;;;;;13.90;5.93;;;11.90;99.90;;;;;;4992347;28;20502;-73
2023/05/28 02:56:17;;;;;;;25.90;6.25;;;11.90;99.90;;;;;;4990992;28;20414;-73
2023/05/28 02:58:42;;;;;;;15.48;5.80;;;11.90;99.90;;;;;;4975202;28;20042;-73
2023/05/28 03:01:08;;;;;;;12.48;5.80;;;11.90;99.90;;;;;;4992527;28;20046;-73
2023/05/28 03:03:34;;;;;;;19.38;6.60;;;11.80;99.90;;;;;;4991249;28;20485;-72
2023/05/28 03:06:00;;;;;;;17.70;5.70;;;11.70;99.90;;;;;;4974776;28;20050;-72
2023/05/28 03:08:26;;;;;;;17.02;5.85;;;11.80;99.90;;;;;;4992027;28;20042;-71
2023/05/28 03:10:51;;;;;;;17.83;6.57;;;11.70;99.90;;;;;;4992296;28;20116;-71
2023/05/28 03:13:17;;;;;;;16.80;6.25;;;11.80;99.90;;;;;;4990820;28;20042;-72
2023/05/28 03:15:42;;;;;;;11.25;5.40;;;11.80;99.90;;;;;;4990734;28;20045;-71
2023/05/28 03:18:08;;;;;;;17.38;6.43;;;11.70;99.90;;;;;;4990910;28;20042;-71
2023/05/28 03:20:33;;;;;;;17.50;6.07;;;11.60;99.90;;;;;;4992118;28;20049;-72
2023/05/28 03:22:59;;;;;;;15.30;6.07;;;11.70;99.90;;;;;;4990634;28;20042;-71
2023/05/28 03:25:25;;;;;;;23.17;6.68;;;11.70;99.90;;;;;;4990857;28;20038;-71
2023/05/28 03:27:52;;;;;;;20.58;5.75;;;11.70;99.90;;;;;;4991867;28;20038;-72
2023/05/28 03:30:17;;;;;;;15.63;6.45;;;11.70;99.90;;;;;;4990991;28;20073;-71
2023/05/28 03:32:43;;;;;;;14.93;5.78;;;11.80;99.90;;;;;;4990541;28;20074;-71
2023/05/28 03:35:09;;;;;;;18.73;6.28;;;11.80;99.90;;;;;;4990393;28;20038;-71
2023/05/28 03:37:34;;;;;;;17.40;6.25;;;11.70;99.90;;;;;;4974327;28;20069;-73
2023/05/28 03:40:00;;;;;;;16.23;6.13;;;11.70;99.90;;;;;;4991624;28;20038;-72
2023/05/28 03:42:25;;;;;;;16.45;6.30;;;11.70;99.90;;;;;;4990543;28;20053;-72
2023/05/28 03:44:51;;;;;;;16.67;5.68;;;11.70;99.90;;;;;;4990847;28;20050;-72
2023/05/28 03:47:17;;;;;;;15.88;5.55;;;11.70;99.90;;;;;;4990441;28;20049;-72
2023/05/28 03:49:42;;;;;;;15.77;5.85;;;11.70;99.90;;;;;;4991749;28;20034;-72
2023/05/28 03:52:09;;;;;;;16.40;5.53;;;11.70;99.90;;;;;;4985878;28;20113;-72
2023/05/28 03:54:35;;;;;;;11.88;5.88;;;11.70;99.90;;;;;;4991830;28;20038;-72
2023/05/28 03:57:01;;;;;;;16.17;6.30;;;11.70;99.90;;;;;;4990509;28;20038;-72
2023/05/28 03:59:26;;;;;;;19.92;6.80;;;11.80;99.90;;;;;;4990493;28;20061;-72
2023/05/28 04:01:52;;;;;;;15.75;5.68;;;11.70;99.90;;;;;;4992777;28;20034;-72
2023/05/28 04:04:17;;;;;;;14.60;5.10;;;11.70;99.90;;;;;;4994231;28;20043;-73
2023/05/28 04:06:43;;;;;;;16.42;6.55;;;11.80;99.90;;;;;;4994974;28;20536;-72
2023/05/28 04:09:09;;;;;;;17.20;5.00;;;11.80;99.90;;;;;;4995047;28;20495;-72
2023/05/28 04:11:37;;;;;;;11.75;5.07;;;11.80;99.90;;;;;;4977504;28;20038;-72
2023/05/28 04:14:02;;;;;;;17.48;5.20;;;11.90;99.90;;;;;;4995137;28;20563;-72
2023/05/28 04:16:28;;;;;;;9.73;5.07;;;11.80;99.90;;;;;;4993591;28;20042;-72
2023/05/28 04:18:54;;;;;;;16.08;6.55;;;11.80;99.90;;;;;;4994853;28;20046;-72
2023/05/28 04:21:21;;;;;;;16.10;6.43;;;11.70;99.90;;;;;;4993760;28;20046;-72
2023/05/28 04:23:47;;;;;;;14.45;5.63;;;11.80;99.90;;;;;;4994941;28;20050;-72
2023/05/28 04:26:14;;;;;;;16.58;5.18;;;11.80;99.90;;;;;;4994764;28;20046;-72
2023/05/28 04:28:40;;;;;;;16.67;5.82;;;11.80;99.90;;;;;;4994597;28;20402;-72
2023/05/28 04:31:06;;;;;;;15.60;5.57;;;11.80;99.90;;;;;;4993688;28;20061;-72
2023/05/28 04:33:32;;;;;;;17.33;5.43;;;11.80;99.90;;;;;;4993395;28;20130;-72
2023/05/28 04:35:59;;;;;;;15.23;5.15;;;11.80;99.90;;;;;;4994438;28;20127;-72
2023/05/28 04:38:28;;;;;;;15.85;5.53;;;11.80;99.90;;;;;;4993402;28;20046;-72
2023/05/28 04:40:54;;;;;;;17.10;5.18;;;11.90;99.90;;;;;;4993219;28;20096;-72
2023/05/28 04:43:21;;;;;;;12.98;4.53;;;11.90;99.90;;;;;;4993267;28;20045;-72
2023/05/28 04:45:47;;;;;;;18.88;6.03;;;12.00;99.90;;;;;;4994336;28;20038;-72
2023/05/28 04:48:12;;;;;;;15.07;6.78;;;12.00;99.90;;;;;;4994286;28;20105;-72
2023/05/28 04:50:39;;;;;;;18.08;5.70;;;12.10;99.90;;;;;;4993319;28;20041;-72
2023/05/28 04:53:04;;;;;;;15.55;5.97;;;12.30;99.90;;;;;;4992881;28;20051;-72
2023/05/28 04:55:30;;;;;;;20.17;7.32;;;12.40;99.90;;;;;;4993022;28;20042;-72
2023/05/28 04:57:55;;;;;;;16.48;6.45;;;12.50;99.90;;;;;;4992952;28;20053;-72
2023/05/28 05:00:23;;;;;;;17.00;6.85;;;12.60;99.90;;;;;;4994168;28;20034;-72
2023/05/28 05:02:49;;;;;;;21.45;7.53;;;12.70;99.90;;;;;;4992866;28;20092;-72
2023/05/28 05:05:16;;;;;;;17.63;6.82;;;12.80;99.90;;;;;;4993937;28;20042;-72
2023/05/28 05:07:41;;;;;;;19.45;7.32;;;12.90;99.90;;;;;;4993866;28;20438;-72
2023/05/28 05:10:08;;;;;;;19.17;6.88;;;12.90;99.90;;;;;;4976735;28;20050;-72
2023/05/28 05:12:34;;;;;;;19.35;6.57;;;13.00;99.90;;;;;;5027556;22;20115;-75
2023/05/28 05:15:00;;;;;;;12.25;5.00;;;13.10;99.90;;;;;;4996157;28;20382;-75
2023/05/28 05:17:26;;;;;;;14.32;5.57;;;13.10;99.90;;;;;;5012155;28;20180;-76
2023/05/28 05:19:52;;;;;;;18.02;5.97;;;13.10;99.90;;;;;;5011621;28;20476;-76
2023/05/28 05:22:18;;;;;;;22.83;6.22;;;13.10;99.90;;;;;;4995885;28;20048;-76
2023/05/28 05:24:46;;;;;;;16.20;5.05;;;13.00;99.90;;;;;;5012009;28;20494;-75
2023/05/28 05:27:11;;;;;;;18.00;5.68;;;13.00;99.90;;;;;;5011905;28;20037;-76
2023/05/28 05:29:37;;;;;;;13.73;5.15;;;13.10;99.90;;;;;;5012085;28;20045;-75
2023/05/28 05:32:03;;;;;;;17.13;4.78;;;13.10;99.90;;;;;;5013046;28;20034;-75
2023/05/28 05:34:28;;;;;;;14.90;5.13;;;13.20;99.90;;;;;;5012111;28;20042;-75
2023/05/28 05:36:54;;;;;;;12.50;4.75;;;13.40;99.90;;;;;;4995320;28;20046;-76
2023/05/28 05:39:20;;;;;;;15.02;5.50;;;13.70;99.90;;;;;;5011512;28;20077;-76
2023/05/28 05:41:45;;;;;;;17.70;6.25;;;14.10;99.90;;;;;;5013133;28;20042;-76
2023/05/28 05:44:11;;;;;;;13.55;4.97;;;14.30;99.90;;;;;;5011820;28;20033;-76
2023/05/28 05:46:36;;;;;;;12.38;4.72;;;14.60;99.90;;;;;;5012683;28;20078;-76
2023/05/28 05:49:02;;;;;;;17.73;4.97;;;14.90;99.90;;;;;;5011609;28;20100;-76
2023/05/28 05:51:28;;;;;;;14.73;5.00;;;15.00;99.90;;;;;;5012888;28;20046;-76
2023/05/28 05:53:53;;;;;;;13.60;5.03;;;15.40;99.90;;;;;;5011810;28;20037;-76
2023/05/28 05:56:19;;;;;;;13.50;4.82;;;15.80;99.90;;;;;;5012681;28;20558;-76
2023/05/28 05:58:45;;;;;;;11.95;4.25;;;16.00;99.90;;;;;;5011573;28;20096;-76
2023/05/28 06:01:11;;;;;;;11.23;6.13;;;16.10;99.90;;;;;;5011693;28;20069;-76
2023/05/28 06:03:36;;;;;;;12.70;4.53;;;16.40;99.90;;;;;;5011197;28;20509;-76
2023/05/28 06:06:02;;;;;;;13.38;4.00;;;16.50;99.90;;;;;;5011297;28;20050;-76
2023/05/28 06:08:27;;;;;;;13.38;4.82;;;16.70;99.90;;;;;;4994693;28;20048;-76
2023/05/28 06:10:53;;;;;;;13.68;4.47;;;16.90;99.90;;;;;;5012511;28;20044;-76
2023/05/28 06:13:18;;;;;;;15.75;4.88;;;17.20;99.90;;;;;;5011030;28;20116;-77
2023/05/28 06:15:44;;;;;;;14.88;4.63;;;17.20;99.90;;;;;;5011320;28;20053;-76
2023/05/28 06:18:11;;;;;;;10.18;4.90;;;17.40;99.90;;;;;;5012130;28;20095;-77
2023/05/28 06:20:37;;;;;;;14.35;5.30;;;17.20;99.90;;;;;;5012524;28;20042;-77
2023/05/28 06:23:02;;;;;;;12.05;4.22;;;17.40;99.90;;;;;;5010680;28;20056;-77
2023/05/28 06:25:28;;;;;;;14.30;6.05;;;17.70;99.90;;;;;;5010869;28;20034;-77
2023/05/28 06:27:53;;;;;;;10.95;4.65;;;17.90;99.90;;;;;;5012014;28;20041;-76
2023/05/28 06:30:19;;;;;;;11.82;6.03;;;18.10;99.90;;;;;;5010941;28;20124;-77
2023/05/28 06:32:45;;;;;;;10.10;4.80;;;18.20;99.90;;;;;;5012028;28;20117;-77
2023/05/28 06:35:10;;;;;;;8.75;4.80;;;18.30;99.90;;;;;;5012383;28;20409;-76
2023/05/28 06:37:36;;;;;;;10.80;4.63;;;18.50;99.90;;;;;;4994439;28;20493;-76
2023/05/28 06:40:05;;;;;;;11.52;4.55;;;18.40;99.50;;;;;;5010741;28;20038;-76
2023/05/28 06:42:31;;;;;;;12.05;4.53;;;18.70;97.80;;;;;;5010737;28;20633;-76
2023/05/28 06:44:59;;;;;;;11.93;5.25;;;18.30;96.20;;;;;;4994409;28;20069;-76
2023/05/28 06:47:24;;;;;;;9.50;4.65;;;18.40;95.30;;;;;;5010530;28;20042;-75
2023/05/28 06:49:51;;;;;;;8.18;4.47;;;18.70;93.70;;;;;;5012219;28;20060;-75
2023/05/28 06:52:18;;;;;;;10.38;5.50;;;18.90;92.70;;;;;;4994175;28;20038;-75
2023/05/28 06:54:44;;;;;;;13.80;6.32;;;19.00;91.10;;;;;;5010824;28;20033;-76
2023/05/28 06:57:10;;;;;;;10.38;4.38;;;19.00;90.50;;;;;;5011771;28;20038;-75
2023/05/28 06:59:35;;;;;;;13.75;4.75;;;18.90;91.00;;;;;;5010741;28;20045;-76
2023/05/28 07:02:01;;;;;;;8.65;4.40;;;19.10;90.60;;;;;;5011755;28;20037;-75
2023/05/28 07:04:26;;;;;;;9.50;4.28;;;19.00;90.10;;;;;;5010525;28;20049;-75
2023/05/28 07:06:53;;;;;;;8.38;4.25;;;18.80;90.20;;;;;;4994225;28;20413;-74
2023/05/28 07:09:19;;;;;;;10.80;4.25;;;19.10;90.00;;;;;;5010401;28;20042;-75
2023/05/28 07:11:44;;;;;;;12.85;4.63;;;19.10;90.20;;;;;;5011737;28;20409;-75
2023/05/28 07:14:10;;;;;;;8.07;3.80;;;19.30;89.70;;;;;;5011777;28;20081;-74
2023/05/28 07:16:35;;;;;;;7.75;3.78;;;19.30;89.10;;;;;;5010300;28;20050;-75
2023/05/28 07:19:01;;;;;;;7.18;3.55;;;19.60;89.50;;;;;;5010318;28;20125;-75
2023/05/28 07:21:26;;;;;;;10.18;3.28;;;19.40;89.80;;;;;;4994058;28;20041;-75
2023/05/28 07:23:52;;;;;;;6.60;3.53;;;20.00;90.60;;;;;;5010416;28;20037;-75
2023/05/28 07:26:17;;;;;;;10.38;4.15;;;19.90;90.20;;;;;;5010187;28;20050;-76
2023/05/28 07:28:43;;;;;;;11.15;3.60;;;19.80;90.70;;;;;;5011427;28;20033;-76
2023/05/28 07:31:08;;;;;;;8.07;3.25;;;20.10;90.50;;;;;;5011515;28;20098;-75
2023/05/28 07:33:35;;;;;;;9.75;3.42;;;19.90;90.60;;;;;;5010851;28;20030;-75
2023/05/28 07:36:01;;;;;;;9.65;3.42;;;20.00;88.00;;;;;;5013358;28;20038;-75
2023/05/28 07:38:26;;;;;;;5.57;2.92;;;20.20;87.80;;;;;;5013465;28;20049;-72
2023/05/28 07:40:52;;;;;;;9.02;3.40;;;20.40;86.20;;;;;;5014228;28;20049;-73
2023/05/28 07:43:18;;;;;;;8.10;3.40;;;20.50;83.90;;;;;;5015486;28;20049;-75
2023/05/28 07:45:43;;;;;;;5.97;3.17;;;20.50;83.50;;;;;;5014041;28;20054;-75
2023/05/28 07:48:09;;;;;;;5.53;2.88;;;20.40;80.30;;;;;;5015245;28;20260;-73
2023/05/28 07:50:34;;;;;;;9.25;3.40;;;20.70;77.70;;;;;;4997296;28;20038;-73
2023/05/28 07:53:01;;;;;;;5.80;2.58;;;20.50;73.10;;;;;;5011380;28;20050;-75
2023/05/28 07:55:27;;;;;;;7.55;3.17;;;20.70;67.60;;;;;;5001273;28;20073;-76
2023/05/28 07:57:52;;;;;;;7.88;3.28;;;21.00;66.10;;;;;;4999253;28;20422;-73
2023/05/28 08:00:19;;;;;;;7.10;3.55;;;21.30;64.10;;;;;;5014085;28;20033;-77
2023/05/28 08:02:44;;;;;;;7.53;3.05;;;21.20;60.50;;;;;;5015027;28;20046;-75
2023/05/28 08:05:11;;;;;;;6.17;2.63;;;20.80;58.40;;;;;;5013298;28;20656;-75
2023/05/28 08:07:37;;;;;;;4.55;2.42;;;20.80;58.70;;;;;;5012859;28;20326;-75
2023/05/28 08:10:04;;;;;;;8.48;3.08;;;21.00;58.40;;;;;;5013124;28;20125;-74
2023/05/28 08:12:30;;;;;;;5.13;2.75;;;21.20;56.90;;;;;;5013198;28;20046;-74
2023/05/28 08:14:55;;;;;;;7.13;3.13;;;21.40;56.50;;;;;;5013030;28;20033;-75
2023/05/28 08:17:22;;;;;;;5.20;2.85;;;21.60;55.10;;;;;;5014547;28;20037;-75
2023/05/28 08:19:49;;;;;;;5.35;3.60;;;21.70;53.00;;;;;;5012730;28;20034;-75
2023/05/28 08:22:15;;;;;;;5.88;3.50;;;21.80;54.40;;;;;;5014359;28;20048;-74
2023/05/28 08:24:41;;;;;;;8.88;3.10;;;21.70;54.70;;;;;;5012357;28;20034;-73
2023/05/28 08:27:06;;;;;;;7.10;3.53;;;21.90;52.80;;;;;;5012739;28;20501;-74
2023/05/28 08:29:32;;;;;;;6.65;3.63;;;21.50;51.90;;;;;;4996394;28;20049;-74
2023/05/28 08:31:58;;;;;;;6.00;3.50;;;21.20;50.60;;;;;;5014090;28;20065;-74
2023/05/28 08:34:25;;;;;;;6.55;3.83;;;21.40;50.60;;;;;;5014117;28;20116;-74
2023/05/28 08:36:51;;;;;;;9.40;3.33;;;21.70;50.80;;;;;;5014215;28;20049;-74
2023/05/28 08:39:17;;;;;;;10.15;4.10;;;22.00;51.90;;;;;;5014023;28;20042;-75
2023/05/28 08:41:43;;;;;;;6.45;4.05;;;22.10;51.90;;;;;;5012691;28;20528;-75
2023/05/28 08:44:09;;;;;;;8.25;3.90;;;21.90;48.20;;;;;;5014383;28;20037;-75
2023/05/28 08:46:36;;;;;;;7.90;4.05;;;21.80;47.00;;;;;;5011731;28;20060;-75
2023/05/28 08:49:03;;;;;;;6.95;4.03;;;22.00;46.50;;;;;;5012284;28;20030;-74
2023/05/28 08:51:32;;;;;;;6.20;3.28;;;22.10;48.10;;;;;;5012701;28;20042;-76
2023/05/28 08:53:59;;;;;;;9.40;4.05;;;22.20;49.80;;;;;;5012410;28;20030;-75
2023/05/28 08:56:25;;;;;;;8.23;4.32;;;22.30;49.40;;;;;;4995774;28;20084;-73
2023/05/28 08:58:51;;;;;;;7.68;4.28;;;22.40;47.90;;;;;;4995923;28;20050;-73
2023/05/28 09:01:17;;;;;;;6.30;4.10;;;22.40;47.90;;;;;;5012166;28;20048;-74
2023/05/28 09:03:42;;;;;;;6.68;3.60;;;22.40;47.20;;;;;;4988639;28;20122;-73
2023/05/28 09:06:09;;;;;;;7.88;4.35;;;22.60;49.00;;;;;;5011495;28;20486;-73
2023/05/28 09:08:35;;;;;;;8.10;4.07;;;22.30;48.40;;;;;;5013035;28;20044;-73
2023/05/28 09:11:14;;;;;;;7.88;4.35;;;22.50;50.00;;;;;;5011860;28;20042;-76
2023/05/28 09:13:44;;;;;;;10.07;4.55;;;22.30;48.10;;;;;;5012014;28;20038;-75
2023/05/28 09:16:10;;;;;;;6.88;4.22;;;22.30;48.90;;;;;;5011713;28;20042;-74
2023/05/28 09:18:36;;;;;;;9.57;4.65;;;21.80;48.90;;;;;;5012431;28;20084;-72
2023/05/28 09:21:10;;;;;;;7.18;4.65;;;21.90;49.80;;;;;;5013175;28;20034;-74
2023/05/28 09:23:36;;;;;;;8.85;5.15;;;21.90;49.50;;;;;;5012205;28;20391;-74
2023/05/28 09:26:02;;;;;;;8.40;5.55;;;22.30;51.00;;;;;;5013273;28;20049;-74
2023/05/28 09:28:28;;;;;;;8.82;5.57;;;21.70;48.40;;;;;;5013107;28;20564;-74
2023/05/28 09:31:02;;;;;;;8.40;5.63;;;22.00;48.30;;;;;;5012716;28;20119;-73
2023/05/28 09:33:28;;;;;;;8.52;5.28;;;21.90;48.50;;;;;;5012546;28;20034;-75
2023/05/28 09:36:01;;;;;;;8.70;5.60;;;21.60;45.90;;;;;;5013421;28;20046;-74
2023/05/28 09:38:27;;;;;;;10.35;5.50;;;21.80;46.00;;;;;;5011972;28;20095;-74
2023/05/28 09:40:55;;;;;;;8.20;5.25;;;21.90;47.00;;;;;;5011863;28;20050;-74
2023/05/28 09:43:30;;;;;;;11.77;5.72;;;22.30;45.70;;;;;;5011936;28;20050;-75
2023/05/28 09:46:07;;;;;;;7.97;5.05;;;22.20;46.40;;;;;;5008089;28;20583;-75
2023/05/28 09:48:33;;;;;;;7.00;4.78;;;21.90;45.50;;;;;;5016139;28;20027;-74
2023/05/28 09:51:02;;;;;;;8.05;4.72;;;21.90;46.20;;;;;;5004289;28;20526;-75
2023/05/28 09:53:30;;;;;;;8.13;4.88;;;22.20;46.50;;;;;;5012307;28;20041;-75
2023/05/28 09:55:59;;;;;;;10.77;5.28;;;22.00;45.70;;;;;;5012188;28;20613;-74
2023/05/28 09:58:31;;;;;;;8.93;5.35;;;22.10;44.90;;;;;;5010834;28;20038;-74
2023/05/28 10:01:00;;;;;;;7.77;5.53;;;21.80;43.20;;;;;;5010733;28;20046;-75
2023/05/28 10:03:38;;;;;;;7.90;5.20;;;21.80;44.40;;;;;;5011324;28;20050;-74
2023/05/28 10:06:15;;;;;;;8.75;4.55;;;21.70;44.60;;;;;;5012006;28;20121;-74
2023/05/28 10:08:43;;;;;;;7.60;5.15;;;21.90;43.90;;;;;;5002448;28;20045;-75
2023/05/28 10:11:12;;;;;;;14.25;5.30;;;21.80;43.60;;;;;;5008600;28;20084;-74
2023/05/28 10:13:39;;;;;;;9.70;6.15;;;21.90;45.00;;;;;;5011956;28;20041;-75
2023/05/28 10:16:05;;;;;;;9.05;5.53;;;21.60;43.60;;;;;;4994195;28;20049;-74
2023/05/28 10:18:31;;;;;;;7.38;5.13;;;21.90;42.70;;;;;;5010496;28;20044;-75
2023/05/28 10:20:58;;;;;;;8.52;5.53;;;22.00;46.20;;;;;;5012185;28;20049;-75
2023/05/28 10:23:24;;;;;;;10.88;6.10;;;21.70;44.50;;;;;;5010860;28;20513;-75
2023/05/28 10:25:50;;;;;;;9.30;5.78;;;21.80;42.40;;;;;;5010280;28;20038;-75
2023/05/28 10:28:19;;;;;;;8.93;5.28;;;21.90;41.80;;;;;;5010227;28;20403;-74
2023/05/28 10:30:45;;;;;;;8.48;5.38;;;21.80;41.90;;;;;;5003096;28;20101;-74
2023/05/28 10:33:16;;;;;;;10.70;5.60;;;21.40;42.70;;;;;;5007014;28;20038;-76
2023/05/28 10:35:57;;;;;;;10.07;5.72;;;21.50;42.30;;;;;;5011861;28;20449;-74
2023/05/28 10:38:23;;;;;;;10.07;6.90;;;21.20;43.20;;;;;;5009240;28;20042;-74
2023/05/28 10:40:49;;;;;;;9.57;5.90;;;21.00;44.00;;;;;;5009504;28;20053;-74
2023/05/28 10:43:37;;;;;;;9.80;6.20;;;21.10;41.60;;;;;;5011483;28;20038;-74
2023/05/28 10:46:07;;;;;;;9.95;5.65;;;21.00;40.60;;;;;;5010146;28;20050;-74
2023/05/28 10:48:41;;;;;;;11.00;5.57;;;21.10;40.80;;;;;;5010375;28;20044;-74
2023/05/28 10:51:07;;;;;;;7.22;5.20;;;21.10;40.90;;;;;;5011151;28;20038;-74
2023/05/28 10:53:33;;;;;;;8.93;5.10;;;21.20;43.30;;;;;;5011557;28;20038;-73
2023/05/28 10:56:01;;;;;;;9.63;5.15;;;20.70;44.40;;;;;;5011479;28;20456;-75
2023/05/28 10:58:35;;;;;;;10.90;5.45;;;20.50;45.30;;;;;;5010204;28;20042;-75
2023/05/28 11:01:10;;;;;;;9.70;4.90;;;20.50;46.10;;;;;;5001508;28;20042;-75
2023/05/28 11:03:40;;;;;;;10.32;4.95;;;20.70;46.80;;;;;;5011892;28;20042;-74
2023/05/28 11:06:07;;;;;;;9.18;4.43;;;20.70;47.30;;;;;;4993546;28;20104;-76
2023/05/28 11:08:37;;;;;;;8.30;4.47;;;20.80;47.70;;;;;;4993831;28;20041;-74
2023/05/28 11:11:04;;;;;;;8.85;4.38;;;20.80;47.20;;;;;;5013617;28;20552;-75
2023/05/28 11:13:29;;;;;;;7.18;4.15;;;20.90;46.60;;;;;;5007812;28;20037;-74
2023/05/28 11:16:05;;;;;;;6.82;3.88;;;20.70;45.60;;;;;;5015315;28;20042;-75
2023/05/28 11:18:30;;;;;;;8.07;4.18;;;20.60;46.40;;;;;;5014490;28;20045;-75
2023/05/28 11:21:07;;;;;;;7.13;3.95;;;20.70;48.40;;;;;;5014262;28;20048;-75
2023/05/28 11:23:35;;;;;;;7.30;3.90;;;20.80;48.90;;;;;;5014365;28;20049;-75
2023/05/28 11:26:00;;;;;;;8.68;3.95;;;20.70;48.70;;;;;;5014700;28;20042;-74
2023/05/28 11:28:26;;;;;;;8.80;3.83;;;20.90;48.40;;;;;;5015167;28;20037;-75
2023/05/28 11:30:55;;;;;;;7.15;3.90;;;20.80;50.20;;;;;;5015676;28;20405;-75
2023/05/28 11:33:21;;;;;;;7.53;3.85;;;20.70;50.70;;;;;;5015486;28;20072;-75
2023/05/28 11:35:56;;;;;;;9.30;3.70;;;20.70;51.10;;;;;;5013485;28;20069;-74
2023/05/28 11:38:22;;;;;;;7.30;3.78;;;20.80;52.10;;;;;;5013873;28;20042;-75
2023/05/28 11:40:47;;;;;;;7.07;3.20;;;20.70;51.90;;;;;;5013264;28;20497;-76
2023/05/28 11:43:13;;;;;;;8.35;3.33;;;20.80;52.70;;;;;;5014822;28;20049;-76
2023/05/28 11:45:39;;;;;;;6.10;2.78;;;20.70;53.40;;;;;;5013605;28;20136;-75
2023/05/28 11:48:11;;;;;;;6.63;3.20;;;20.40;54.80;;;;;;5013849;28;20619;-75
2023/05/28 11:50:37;;;;;;;9.50;3.70;;;20.40;55.70;;;;;;5014198;28;20041;-75
2023/05/28 11:53:03;;;;;;;6.88;3.60;;;20.20;56.50;;;;;;4997587;28;20033;-75
2023/05/28 11:55:28;;;;;;;5.80;2.90;;;20.10;58.00;;;;;;5014857;28;20061;-76
2023/05/28 11:57:55;;;;;;;7.15;2.90;;;20.10;59.70;;;;;;5014664;28;20034;-76
2023/05/28 12:00:31;;;;;;;9.55;3.15;;;20.30;61.00;;;;;;5013685;28;20042;-75
2023/05/28 12:02:57;;;;;;;9.63;4.05;;;20.30;62.40;;;;;;5013807;28;20042;-76
2023/05/28 12:05:23;;;;;;;11.32;3.80;;;20.30;63.70;;;;;;5013751;28;20088;-76
2023/05/28 12:07:53;;;;;;;6.82;3.17;;;20.30;64.60;;;;;;5014600;28;20561;-75
2023/05/28 12:10:26;;;;;;;7.60;3.63;;;20.30;66.00;;;;;;5013552;28;20076;-75
2023/05/28 12:12:56;;;;;;;8.13;3.00;;;20.50;66.50;;;;;;5013237;28;20034;-75
2023/05/28 12:15:24;;;;;;;10.80;3.67;;;20.30;67.60;;;;;;4997053;28;20414;-75
2023/05/28 12:17:56;;;;;;;6.03;3.10;;;20.30;69.20;;;;;;5014524;28;20034;-75
2023/05/28 12:20:21;;;;;;;9.23;3.80;;;20.10;69.50;;;;;;5013432;28;20046;-77
2023/05/28 12:23:02;;;;;;;9.27;4.10;;;20.20;71.70;;;;;;5013107;28;20053;-75
2023/05/28 12:25:28;;;;;;;6.72;3.03;;;19.80;72.40;;;;;;5014406;28;20045;-76
2023/05/28 12:27:54;;;;;;;9.57;3.40;;;19.80;74.70;;;;;;5014267;28;20041;-75
2023/05/28 12:30:19;;;;;;;10.13;3.42;;;19.80;75.90;;;;;;5013115;28;20065;-76
2023/05/28 12:32:45;;;;;;;6.95;3.63;;;19.80;75.80;;;;;;5013200;28;20383;-76
2023/05/28 12:35:10;;;;;;;8.35;3.65;;;19.80;77.90;;;;;;5012992;28;20034;-76
2023/05/28 12:37:36;;;;;;;9.45;3.10;;;19.80;78.30;;;;;;5012848;28;20070;-76